Flight Track Log - Related Links

Times and Time Zones

All times are in EDT time to prevent confusion due to time zone crossing. See the UJC329 flight status page for this flight to view local times or setup timezone preferences in your user account.

Time Position Orientation Groundspeed Altitude Reporting Facility
EDT Latitude Longitude Course Direction KTS MPH feet Rate Location/Type
Tue 05:18:24 PM 40.9000 -74.0500 239° Southwest 204 235 2,100  Level New York TRACON
Tue 05:19:18 PM 40.9167 -74.1333 285° West 222 255 4,100 2,053 Climbing New York TRACON
Tue 05:20:18 PM 40.9333 -74.2167 285° West 272 313 6,000 1,700 Climbing New York TRACON
Tue 05:21:18 PM 40.9167 -74.3167 258° West 275 316 7,500 1,981 Climbing New York TRACON
Tue 05:22:01 PM 40.9142 -74.3983 268° West 280 322 9,400 2,250 Climbing New York Center
Tue 05:23:00 PM 40.7763 -74.6601 239° Southwest  Level Estimated
Tue 05:23:02 PM 40.8886 -74.4875 249° West 300 345 11,400  Level New York Center
Tue 05:24:00 PM 40.8494 -74.6033 246° West 332 382 12,800 1,462 Climbing New York Center
Tue 05:25:01 PM 40.8150 -74.7028 245° Southwest 337 388 14,300 1,550 Climbing New York Center
Tue 05:26:00 PM 40.7708 -74.8319 246° West 342 394 15,900 1,361 Climbing New York Center
Tue 05:27:00 PM 40.7294 -74.9500 245° Southwest 352 405 17,000 1,120 Climbing New York Center
Tue 05:32:58 PM 40.4510 -75.5840 245° Southwest 100 115 23,700 1,064 Climbing FlightAware ADS-B
Tue 05:33:46 PM 40.4140 -75.6660 239° Southwest 350 403 24,200 1,275 Climbing FlightAware ADS-B
Tue 05:34:18 PM 40.3820 -75.7310 237° Southwest 354 407 25,400 1,214 Climbing FlightAware ADS-B
Tue 05:35:10 PM 40.3440 -75.8130 239° Southwest 350 403 25,900 341 Climbing FlightAware ADS-B
Tue 05:35:46 PM 40.3180 -75.8690 239° Southwest 350 403 25,900  Level FlightAware ADS-B
Tue 05:36:22 PM 40.2910 -75.9240 237° Southwest 350 403 25,900 1,750 Level FlightAware ADS-B
Tue 05:36:58 PM 40.2490 -76.0170 239° Southwest 350 403 28,000 1,775 Climbing FlightAware ADS-B
Tue 05:37:33 PM 40.2200 -76.0810 239° Southwest 378 435 28,000  Level FlightAware ADS-B
Tue 05:38:13 PM 40.1770 -76.1690 237° Southwest 385 443 28,000  Level FlightAware ADS-B
Tue 05:38:50 PM 40.1460 -76.2300 236° Southwest 385 443 28,000  Level FlightAware ADS-B
Tue 05:39:26 PM 40.1160 -76.2890 236° Southwest 385 443 28,000  Level FlightAware ADS-B
Tue 05:40:03 PM 40.0840 -76.3500 236° Southwest 385 443 28,000  Level FlightAware ADS-B
Tue 05:40:39 PM 40.0540 -76.4090 236° Southwest 385 443 28,000 857 Level FlightAware ADS-B
Tue 05:41:13 PM 40.0110 -76.5230 244° Southwest 385 443 29,000 938 Climbing FlightAware ADS-B
Tue 05:41:43 PM 39.9810 -76.5910 240° Southwest 397 457 29,000  Level FlightAware ADS-B
Tue 05:42:31 PM 39.9430 -76.6760 240° Southwest 362 417 29,000  Level FlightAware ADS-B
Tue 05:43:08 PM 39.9150 -76.7350 238° Southwest 362 417 29,000 390 Level FlightAware ADS-B
Tue 05:43:48 PM 39.8670 -76.8410 239° Southwest 340 391 29,500 375 Climbing FlightAware ADS-B
Tue 05:44:28 PM 39.8400 -76.9010 240° Southwest 340 391 29,500  Level FlightAware ADS-B
Tue 05:45:06 PM 39.8140 -76.9580 239° Southwest 340 391 29,500  Level FlightAware ADS-B
Tue 05:45:40 PM 39.7920 -77.0100 241° Southwest 340 391 29,500  Level FlightAware ADS-B
Tue 05:46:16 PM 39.7680 -77.0640 240° Southwest 340 391 29,500  Level FlightAware ADS-B
Tue 05:46:53 PM 39.7430 -77.1200 240° Southwest 340 391 29,500  Level FlightAware ADS-B
Tue 05:47:29 PM 39.7190 -77.1740 240° Southwest 340 391 29,500 341 Level FlightAware ADS-B
Tue 05:48:21 PM 39.6000 -77.4014 240° Southwest 388 447 30,000 268 Climbing Washington Center
Tue 05:49:21 PM 39.5461 -77.5158 239° Southwest 383 441 30,000  Level Washington Center
Tue 05:50:22 PM 39.4900 -77.6325 238° Southwest 383 441 30,000  Level Washington Center
Tue 05:51:22 PM 39.4361 -77.7467 239° Southwest 383 441 30,000  Level Washington Center
Tue 05:52:21 PM 39.3797 -77.8603 237° Southwest 383 441 30,000  Level Washington Center
Tue 05:53:21 PM 39.3292 -77.9956 244° Southwest 383 441 30,000  Level Washington Center
Tue 05:54:20 PM 39.2811 -78.1119 242° Southwest 378 435 30,000  Level Washington Center
Tue 05:55:21 PM 39.2325 -78.2308 242° Southwest 373 429 30,000  Level Washington Center
Tue 05:56:21 PM 39.1861 -78.3497 243° Southwest 373 429 30,000  Level Washington Center
Tue 05:57:20 PM 39.1397 -78.4683 243° Southwest 373 429 30,000  Level Washington Center
Tue 05:58:20 PM 39.0908 -78.5842 241° Southwest 373 429 30,000  Level Washington Center
Tue 05:59:21 PM 39.0442 -78.7053 244° Southwest 378 435 30,000  Level Washington Center
Tue 06:00:22 PM 38.9950 -78.8261 242° Southwest 378 435 30,000  Level Washington Center
Tue 06:01:22 PM 38.9439 -78.9439 241° Southwest 378 435 30,000  Level Washington Center
Tue 06:02:20 PM 38.8967 -79.0644 243° Southwest 378 435 30,000  Level Washington Center
Tue 06:03:20 PM 38.8517 -79.1769 243° Southwest 378 435 30,000  Level Washington Center
Tue 06:04:21 PM 38.8394 -79.3017 263° West 361 415 30,000  Level Washington Center
Tue 06:05:22 PM 38.8375 -79.4322 269° West 361 415 30,000  Level Washington Center
Tue 06:06:20 PM 38.8356 -79.5600 269° West 361 415 30,000  Level Washington Center
Tue 06:07:21 PM 38.8331 -79.6931 269° West 374 430 30,000  Level Washington Center
Tue 06:08:21 PM 38.8306 -79.8261 269° West 374 430 30,000  Level Washington Center
Tue 06:08:51 PM 38.8258 -79.8861 264° West 365 420 30,000  Level Indianapolis Center
Tue 06:09:53 PM 38.8222 -80.0172 268° West 367 422 30,000  Level Indianapolis Center
Tue 06:10:55 PM 38.8197 -80.1483 269° West 369 425 30,000  Level Indianapolis Center
Tue 06:12:00 PM 38.8131 -80.2810 266° West  Level FlightAware Approximate
Tue 06:12:59 PM 38.8117 -80.4167 266° West 376 433 30,000  Level Indianapolis Center
Tue 06:14:01 PM 38.8083 -80.5483 268° West 372 428 30,000  Level Indianapolis Center
Tue 06:15:03 PM 38.8042 -80.6819 268° West 373 429 30,000  Level Indianapolis Center
Tue 06:16:05 PM 38.7994 -80.8408 268° West 374 430 30,000  Level Indianapolis Center
Tue 06:17:07 PM 38.7950 -80.9728 268° West 372 428 30,000  Level Indianapolis Center
Tue 06:18:09 PM 38.7900 -81.1036 267° West 369 425 30,000  Level Indianapolis Center
Tue 06:19:11 PM 38.7858 -81.2344 268° West 369 425 30,000 -629 Level Indianapolis Center
Tue 06:20:13 PM 38.7981 -81.3667 277° West 377 434 28,700 -1,355 Descending Indianapolis Center
Tue 06:21:15 PM 38.8164 -81.5269 278° West 387 445 27,200 -1,355 Descending Indianapolis Center
Tue 06:22:17 PM 38.8306 -81.6592 278° West 383 441 25,900 -1,210 Descending Indianapolis Center
Tue 06:23:19 PM 38.8447 -81.7931 278° West 382 440 24,700 -1,113 Descending Indianapolis Center
Tue 06:24:21 PM 38.8594 -81.9289 278° West 386 444 23,600 -1,104 Descending Indianapolis Center
Tue 06:25:24 PM 38.8744 -82.0647 278° West 385 443 22,400 -1,440 Descending Indianapolis Center
Tue 06:26:26 PM 38.8919 -82.2311 278° West 391 450 20,600 -1,161 Descending Indianapolis Center
Tue 06:27:28 PM 38.9072 -82.3725 278° West 399 459 20,000 -290 Descending Indianapolis Center
Tue 06:28:30 PM 38.9211 -82.5111 277° West 393 452 20,000  Level Indianapolis Center
Tue 06:29:32 PM 38.9353 -82.6514 277° West 395 455 20,000  Level Indianapolis Center
Tue 06:30:34 PM 38.9503 -82.7900 278° West 394 453 20,000 -48 Level Indianapolis Center
Tue 06:31:36 PM 38.9639 -82.9303 277° West 395 455 19,900 -1,500 Descending Indianapolis Center
Tue 06:32:38 PM 38.9803 -83.0997 277° West 398 458 16,900 -2,468 Descending Indianapolis Center
Tue 06:33:40 PM 38.9931 -83.2294 277° West 383 441 14,800 -2,081 Descending Indianapolis Center
Tue 06:34:42 PM 39.0058 -83.3567 277° West 367 422 12,600 -2,129 Descending Indianapolis Center
Tue 06:35:44 PM 39.0172 -83.4819 277° West 357 411 10,400 -1,984 Descending Indianapolis Center
Tue 06:36:46 PM 39.0281 -83.5972 277° West 334 384 8,500 -1,790 Descending Indianapolis Center
Tue 06:37:48 PM 39.0381 -83.6944 278° West 288 331 6,700 -1,210 Descending Indianapolis Center
Tue 06:38:50 PM 39.0486 -83.8131 277° West 280 322 6,000 -339 Descending Indianapolis Center
Tue 06:39:52 PM 39.0578 -83.9081 277° West 274 315 6,000 -97 Level Indianapolis Center
Tue 06:40:54 PM 39.0653 -84.0069 276° West 275 316 5,800 -484 Descending Indianapolis Center
Tue 06:41:56 PM 39.0600 -84.1069 266° West 279 321 5,000 -816 Descending Indianapolis Center
Tue 06:42:59 PM 39.0547 -84.2067 266° West 278 320 4,100 -720 Descending Indianapolis Center
Tue 06:44:01 PM 39.0472 -84.3025 264° West 276 318 3,500 -966 Descending Indianapolis Center
Tue 06:45:53 PM 39.0667 -84.4333 281° West 142 163 1,300 -1,179 Descending Cincinnati TRACON
Tue 06:47:00 PM 39.1000 -84.4167 21° North  Level FlightAware Approximate
Tue 06:54:00 PM 39.1033 -84.4186 21° North  Level Estimated

Login

Don't have an account? Register now (free) for customized features, flight alerts, and more!